sensor_id;sensor_type;location;lat;lon;timestamp;P1;durP1;ratioP1;P2;durP2;ratioP2
45388;SDS011;31127;52.078;4.370;2022-10-16T00:05:14;3.85;;;1.30;;
45388;SDS011;31127;52.078;4.370;2022-10-16T00:10:29;1.83;;;1.08;;
45388;SDS011;31127;52.078;4.370;2022-10-16T00:15:24;3.40;;;1.23;;
45388;SDS011;31127;52.078;4.370;2022-10-16T00:20:40;3.42;;;1.63;;
45388;SDS011;31127;52.078;4.370;2022-10-16T00:25:56;2.90;;;1.33;;
45388;SDS011;31127;52.078;4.370;2022-10-16T00:30:52;3.35;;;1.10;;
45388;SDS011;31127;52.078;4.370;2022-10-16T00:35:47;2.37;;;0.77;;
45388;SDS011;31127;52.078;4.370;2022-10-16T00:40:43;2.28;;;0.88;;
45388;SDS011;31127;52.078;4.370;2022-10-16T00:45:38;4.43;;;1.05;;
45388;SDS011;31127;52.078;4.370;2022-10-16T00:50:54;5.82;;;0.90;;
45388;SDS011;31127;52.078;4.370;2022-10-16T00:56:09;3.88;;;0.93;;
45388;SDS011;31127;52.078;4.370;2022-10-16T01:01:04;3.80;;;1.20;;
45388;SDS011;31127;52.078;4.370;2022-10-16T01:06:23;2.42;;;1.42;;
45388;SDS011;31127;52.078;4.370;2022-10-16T01:16:31;3.50;;;1.02;;
45388;SDS011;31127;52.078;4.370;2022-10-16T01:21:29;6.05;;;1.30;;
45388;SDS011;31127;52.078;4.370;2022-10-16T01:26:50;2.30;;;0.90;;
45388;SDS011;31127;52.078;4.370;2022-10-16T01:32:09;5.90;;;2.00;;
45388;SDS011;31127;52.078;4.370;2022-10-16T01:42:21;2.92;;;1.30;;
45388;SDS011;31127;52.078;4.370;2022-10-16T01:47:18;6.85;;;1.48;;
45388;SDS011;31127;52.078;4.370;2022-10-16T01:52:35;3.50;;;1.10;;
45388;SDS011;31127;52.078;4.370;2022-10-16T01:57:32;3.75;;;1.27;;
45388;SDS011;31127;52.078;4.370;2022-10-16T02:02:49;4.00;;;1.20;;
45388;SDS011;31127;52.078;4.370;2022-10-16T02:08:06;3.25;;;1.13;;
45388;SDS011;31127;52.078;4.370;2022-10-16T02:13:06;3.72;;;1.30;;
45388;SDS011;31127;52.078;4.370;2022-10-16T02:18:04;6.45;;;1.30;;
45388;SDS011;31127;52.078;4.370;2022-10-16T02:23:00;5.40;;;1.55;;
45388;SDS011;31127;52.078;4.370;2022-10-16T02:28:08;2.72;;;1.77;;
45388;SDS011;31127;52.078;4.370;2022-10-16T02:33:09;4.15;;;1.80;;
45388;SDS011;31127;52.078;4.370;2022-10-16T02:38:05;4.50;;;1.85;;
45388;SDS011;31127;52.078;4.370;2022-10-16T02:43:02;4.78;;;1.80;;
45388;SDS011;31127;52.078;4.370;2022-10-16T02:47:58;5.85;;;1.70;;
45388;SDS011;31127;52.078;4.370;2022-10-16T02:52:54;5.57;;;2.13;;
45388;SDS011;31127;52.078;4.370;2022-10-16T02:57:49;3.40;;;1.85;;
45388;SDS011;31127;52.078;4.370;2022-10-16T03:02:45;7.57;;;2.10;;
45388;SDS011;31127;52.078;4.370;2022-10-16T03:07:41;4.28;;;1.38;;
45388;SDS011;31127;52.078;4.370;2022-10-16T03:12:56;4.68;;;2.10;;
45388;SDS011;31127;52.078;4.370;2022-10-16T03:18:12;2.10;;;1.17;;
45388;SDS011;31127;52.078;4.370;2022-10-16T03:23:22;4.63;;;1.08;;
45388;SDS011;31127;52.078;4.370;2022-10-16T03:28:17;3.80;;;1.00;;
45388;SDS011;31127;52.078;4.370;2022-10-16T03:33:13;4.57;;;1.00;;
45388;SDS011;31127;52.078;4.370;2022-10-16T03:38:08;3.90;;;1.60;;
45388;SDS011;31127;52.078;4.370;2022-10-16T03:43:23;1.98;;;0.88;;
45388;SDS011;31127;52.078;4.370;2022-10-16T03:48:21;3.42;;;1.15;;
45388;SDS011;31127;52.078;4.370;2022-10-16T03:53:16;4.97;;;1.10;;
45388;SDS011;31127;52.078;4.370;2022-10-16T03:58:12;4.80;;;1.25;;
45388;SDS011;31127;52.078;4.370;2022-10-16T04:03:27;13.75;;;1.83;;
45388;SDS011;31127;52.078;4.370;2022-10-16T04:08:43;5.70;;;1.25;;
45388;SDS011;31127;52.078;4.370;2022-10-16T04:13:38;4.38;;;1.17;;
45388;SDS011;31127;52.078;4.370;2022-10-16T04:18:34;6.93;;;1.08;;
45388;SDS011;31127;52.078;4.370;2022-10-16T04:23:30;3.88;;;1.17;;
45388;SDS011;31127;52.078;4.370;2022-10-16T04:28:25;4.88;;;1.38;;
45388;SDS011;31127;52.078;4.370;2022-10-16T04:33:21;4.18;;;1.00;;
45388;SDS011;31127;52.078;4.370;2022-10-16T04:38:37;5.75;;;1.50;;
45388;SDS011;31127;52.078;4.370;2022-10-16T04:43:33;4.05;;;1.00;;
45388;SDS011;31127;52.078;4.370;2022-10-16T04:48:48;3.88;;;1.65;;
45388;SDS011;31127;52.078;4.370;2022-10-16T04:53:46;3.00;;;1.45;;
45388;SDS011;31127;52.078;4.370;2022-10-16T04:58:42;5.82;;;1.55;;
45388;SDS011;31127;52.078;4.370;2022-10-16T05:03:37;5.78;;;1.92;;
45388;SDS011;31127;52.078;4.370;2022-10-16T05:08:53;5.65;;;1.63;;
45388;SDS011;31127;52.078;4.370;2022-10-16T05:13:48;8.50;;;1.53;;
45388;SDS011;31127;52.078;4.370;2022-10-16T05:19:03;12.75;;;2.35;;
45388;SDS011;31127;52.078;4.370;2022-10-16T05:23:59;8.10;;;2.28;;
45388;SDS011;31127;52.078;4.370;2022-10-16T05:28:54;9.82;;;3.33;;
45388;SDS011;31127;52.078;4.370;2022-10-16T05:33:49;5.17;;;2.10;;
45388;SDS011;31127;52.078;4.370;2022-10-16T05:38:45;8.93;;;2.70;;
45388;SDS011;31127;52.078;4.370;2022-10-16T05:44:00;5.55;;;2.78;;
45388;SDS011;31127;52.078;4.370;2022-10-16T05:48:58;9.57;;;2.40;;
45388;SDS011;31127;52.078;4.370;2022-10-16T05:54:14;7.15;;;2.92;;
45388;SDS011;31127;52.078;4.370;2022-10-16T05:59:30;5.95;;;2.38;;
45388;SDS011;31127;52.078;4.370;2022-10-16T06:04:25;6.97;;;2.77;;
45388;SDS011;31127;52.078;4.370;2022-10-16T06:09:40;8.23;;;2.75;;
45388;SDS011;31127;52.078;4.370;2022-10-16T06:14:36;5.83;;;2.53;;
45388;SDS011;31127;52.078;4.370;2022-10-16T06:19:51;8.27;;;2.47;;
45388;SDS011;31127;52.078;4.370;2022-10-16T06:25:09;5.40;;;2.00;;
45388;SDS011;31127;52.078;4.370;2022-10-16T06:30:05;8.30;;;2.08;;
45388;SDS011;31127;52.078;4.370;2022-10-16T06:35:01;10.43;;;2.00;;
45388;SDS011;31127;52.078;4.370;2022-10-16T06:39:56;8.13;;;1.90;;
45388;SDS011;31127;52.078;4.370;2022-10-16T06:44:51;8.83;;;2.20;;
45388;SDS011;31127;52.078;4.370;2022-10-16T06:50:07;12.82;;;1.85;;
45388;SDS011;31127;52.078;4.370;2022-10-16T06:55:03;8.20;;;2.15;;
45388;SDS011;31127;52.078;4.370;2022-10-16T07:00:18;11.65;;;2.15;;
45388;SDS011;31127;52.078;4.370;2022-10-16T07:05:37;9.52;;;3.45;;
45388;SDS011;31127;52.078;4.370;2022-10-16T07:10:32;10.88;;;2.53;;
45388;SDS011;31127;52.078;4.370;2022-10-16T07:15:28;8.50;;;2.05;;
45388;SDS011;31127;52.078;4.370;2022-10-16T07:20:23;9.70;;;2.43;;
45388;SDS011;31127;52.078;4.370;2022-10-16T07:25:19;8.30;;;2.13;;
45388;SDS011;31127;52.078;4.370;2022-10-16T07:30:35;14.32;;;2.83;;
45388;SDS011;31127;52.078;4.370;2022-10-16T07:35:30;12.82;;;3.00;;
45388;SDS011;31127;52.078;4.370;2022-10-16T07:40:27;68.65;;;6.43;;
45388;SDS011;31127;52.078;4.370;2022-10-16T07:45:22;5.95;;;1.80;;
45388;SDS011;31127;52.078;4.370;2022-10-16T07:50:18;10.30;;;2.90;;
45388;SDS011;31127;52.078;4.370;2022-10-16T07:55:13;9.80;;;1.90;;
45388;SDS011;31127;52.078;4.370;2022-10-16T08:00:08;9.07;;;2.80;;
45388;SDS011;31127;52.078;4.370;2022-10-16T08:05:24;12.02;;;2.03;;
45388;SDS011;31127;52.078;4.370;2022-10-16T08:10:24;8.23;;;2.20;;
45388;SDS011;31127;52.078;4.370;2022-10-16T08:15:20;12.75;;;2.13;;
45388;SDS011;31127;52.078;4.370;2022-10-16T08:20:16;10.68;;;2.40;;
45388;SDS011;31127;52.078;4.370;2022-10-16T08:25:11;8.93;;;3.13;;
45388;SDS011;31127;52.078;4.370;2022-10-16T08:30:06;11.07;;;2.43;;
45388;SDS011;31127;52.078;4.370;2022-10-16T08:35:02;11.70;;;3.22;;
45388;SDS011;31127;52.078;4.370;2022-10-16T08:39:57;13.20;;;2.85;;
45388;SDS011;31127;52.078;4.370;2022-10-16T08:50:10;11.98;;;2.33;;
45388;SDS011;31127;52.078;4.370;2022-10-16T08:55:31;13.73;;;5.03;;
45388;SDS011;31127;52.078;4.370;2022-10-16T09:00:28;8.75;;;1.60;;
45388;SDS011;31127;52.078;4.370;2022-10-16T09:05:46;10.38;;;2.03;;
45388;SDS011;31127;52.078;4.370;2022-10-16T09:11:17;13.70;;;2.47;;
45388;SDS011;31127;52.078;4.370;2022-10-16T09:16:40;19.40;;;3.47;;
45388;SDS011;31127;52.078;4.370;2022-10-16T09:21:41;14.07;;;2.90;;
45388;SDS011;31127;52.078;4.370;2022-10-16T09:26:56;11.90;;;2.60;;
45388;SDS011;31127;52.078;4.370;2022-10-16T09:32:12;12.55;;;2.45;;
45388;SDS011;31127;52.078;4.370;2022-10-16T09:37:09;16.70;;;2.65;;
45388;SDS011;31127;52.078;4.370;2022-10-16T09:42:35;10.45;;;2.88;;
45388;SDS011;31127;52.078;4.370;2022-10-16T09:47:31;12.65;;;3.05;;
45388;SDS011;31127;52.078;4.370;2022-10-16T09:52:27;10.40;;;3.13;;
45388;SDS011;31127;52.078;4.370;2022-10-16T09:57:23;14.23;;;3.65;;
45388;SDS011;31127;52.078;4.370;2022-10-16T10:02:20;14.13;;;3.90;;
45388;SDS011;31127;52.078;4.370;2022-10-16T10:07:19;12.88;;;3.13;;
45388;SDS011;31127;52.078;4.370;2022-10-16T10:12:23;14.63;;;3.78;;
45388;SDS011;31127;52.078;4.370;2022-10-16T10:27:24;11.55;;;5.47;;
45388;SDS011;31127;52.078;4.370;2022-10-16T10:42:48;12.55;;;3.40;;
45388;SDS011;31127;52.078;4.370;2022-10-16T10:47:58;9.10;;;3.20;;
45388;SDS011;31127;52.078;4.370;2022-10-16T10:58:10;9.35;;;3.13;;
45388;SDS011;31127;52.078;4.370;2022-10-16T11:08:13;15.43;;;5.43;;
45388;SDS011;31127;52.078;4.370;2022-10-16T11:13:25;7.22;;;2.80;;
45388;SDS011;31127;52.078;4.370;2022-10-16T11:18:32;12.57;;;3.15;;
45388;SDS011;31127;52.078;4.370;2022-10-16T11:23:29;11.45;;;3.45;;
45388;SDS011;31127;52.078;4.370;2022-10-16T11:28:27;9.43;;;2.88;;
45388;SDS011;31127;52.078;4.370;2022-10-16T11:33:36;7.13;;;2.65;;
45388;SDS011;31127;52.078;4.370;2022-10-16T11:54:26;9.02;;;3.28;;
45388;SDS011;31127;52.078;4.370;2022-10-16T12:04:28;10.27;;;3.05;;
45388;SDS011;31127;52.078;4.370;2022-10-16T12:09:29;8.77;;;3.22;;
45388;SDS011;31127;52.078;4.370;2022-10-16T12:14:44;10.63;;;2.75;;
45388;SDS011;31127;52.078;4.370;2022-10-16T12:19:39;9.32;;;3.25;;
45388;SDS011;31127;52.078;4.370;2022-10-16T12:34:48;12.88;;;3.55;;
45388;SDS011;31127;52.078;4.370;2022-10-16T12:40:13;8.40;;;3.55;;
45388;SDS011;31127;52.078;4.370;2022-10-16T12:45:29;7.80;;;2.70;;
45388;SDS011;31127;52.078;4.370;2022-10-16T12:55:30;10.82;;;2.70;;
45388;SDS011;31127;52.078;4.370;2022-10-16T13:00:57;9.73;;;2.43;;
45388;SDS011;31127;52.078;4.370;2022-10-16T13:06:30;14.93;;;3.20;;
45388;SDS011;31127;52.078;4.370;2022-10-16T13:11:39;13.55;;;2.85;;
45388;SDS011;31127;52.078;4.370;2022-10-16T13:16:47;13.27;;;3.20;;
45388;SDS011;31127;52.078;4.370;2022-10-16T13:21:48;12.35;;;2.92;;
45388;SDS011;31127;52.078;4.370;2022-10-16T13:26:46;8.80;;;2.28;;
45388;SDS011;31127;52.078;4.370;2022-10-16T13:31:44;10.43;;;3.08;;
45388;SDS011;31127;52.078;4.370;2022-10-16T13:37:00;16.80;;;2.75;;
45388;SDS011;31127;52.078;4.370;2022-10-16T13:52:17;12.07;;;2.93;;
45388;SDS011;31127;52.078;4.370;2022-10-16T13:57:15;10.45;;;2.80;;
45388;SDS011;31127;52.078;4.370;2022-10-16T14:02:32;13.98;;;2.83;;
45388;SDS011;31127;52.078;4.370;2022-10-16T14:07:49;12.48;;;2.70;;
45388;SDS011;31127;52.078;4.370;2022-10-16T14:12:53;9.82;;;2.70;;
45388;SDS011;31127;52.078;4.370;2022-10-16T14:17:49;18.23;;;3.65;;
45388;SDS011;31127;52.078;4.370;2022-10-16T14:22:46;8.02;;;2.17;;
45388;SDS011;31127;52.078;4.370;2022-10-16T14:27:41;10.95;;;2.53;;
45388;SDS011;31127;52.078;4.370;2022-10-16T14:32:37;15.52;;;2.70;;
45388;SDS011;31127;52.078;4.370;2022-10-16T14:37:35;11.57;;;2.60;;
45388;SDS011;31127;52.078;4.370;2022-10-16T14:42:50;14.73;;;2.92;;
45388;SDS011;31127;52.078;4.370;2022-10-16T14:48:06;15.50;;;4.97;;
45388;SDS011;31127;52.078;4.370;2022-10-16T14:53:25;11.57;;;2.47;;
45388;SDS011;31127;52.078;4.370;2022-10-16T14:58:40;9.90;;;3.17;;
45388;SDS011;31127;52.078;4.370;2022-10-16T15:03:35;17.93;;;3.97;;
45388;SDS011;31127;52.078;4.370;2022-10-16T15:08:31;18.17;;;6.33;;
45388;SDS011;31127;52.078;4.370;2022-10-16T15:13:46;12.30;;;2.50;;
45388;SDS011;31127;52.078;4.370;2022-10-16T15:19:01;11.00;;;2.92;;
45388;SDS011;31127;52.078;4.370;2022-10-16T15:23:57;17.53;;;5.10;;
45388;SDS011;31127;52.078;4.370;2022-10-16T15:28:53;20.48;;;5.07;;
45388;SDS011;31127;52.078;4.370;2022-10-16T15:33:50;17.23;;;4.18;;
45388;SDS011;31127;52.078;4.370;2022-10-16T15:38:48;11.90;;;4.28;;
45388;SDS011;31127;52.078;4.370;2022-10-16T15:43:43;14.27;;;4.80;;
45388;SDS011;31127;52.078;4.370;2022-10-16T15:48:39;15.38;;;3.70;;
45388;SDS011;31127;52.078;4.370;2022-10-16T15:53:34;19.13;;;4.68;;
45388;SDS011;31127;52.078;4.370;2022-10-16T15:58:50;20.25;;;6.13;;
45388;SDS011;31127;52.078;4.370;2022-10-16T16:04:06;18.27;;;5.38;;
45388;SDS011;31127;52.078;4.370;2022-10-16T16:09:01;21.47;;;6.30;;
45388;SDS011;31127;52.078;4.370;2022-10-16T16:13:56;16.17;;;6.70;;
45388;SDS011;31127;52.078;4.370;2022-10-16T16:19:12;19.10;;;5.35;;
45388;SDS011;31127;52.078;4.370;2022-10-16T16:24:07;18.30;;;4.43;;
45388;SDS011;31127;52.078;4.370;2022-10-16T16:29:03;16.38;;;4.05;;
45388;SDS011;31127;52.078;4.370;2022-10-16T16:34:18;11.20;;;3.70;;
45388;SDS011;31127;52.078;4.370;2022-10-16T16:39:14;11.95;;;4.53;;
45388;SDS011;31127;52.078;4.370;2022-10-16T16:44:29;23.55;;;6.75;;
45388;SDS011;31127;52.078;4.370;2022-10-16T16:49:45;25.65;;;10.90;;
45388;SDS011;31127;52.078;4.370;2022-10-16T16:54:41;20.42;;;5.95;;
45388;SDS011;31127;52.078;4.370;2022-10-16T16:59:36;17.80;;;5.40;;
45388;SDS011;31127;52.078;4.370;2022-10-16T17:04:52;19.85;;;5.93;;
45388;SDS011;31127;52.078;4.370;2022-10-16T17:09:48;14.07;;;4.70;;
45388;SDS011;31127;52.078;4.370;2022-10-16T17:14:43;16.40;;;5.45;;
45388;SDS011;31127;52.078;4.370;2022-10-16T17:19:39;21.10;;;5.00;;
45388;SDS011;31127;52.078;4.370;2022-10-16T17:24:34;16.93;;;5.47;;
45388;SDS011;31127;52.078;4.370;2022-10-16T17:29:29;16.60;;;5.37;;
45388;SDS011;31127;52.078;4.370;2022-10-16T17:34:25;22.87;;;6.20;;
45388;SDS011;31127;52.078;4.370;2022-10-16T17:39:20;18.45;;;5.22;;
45388;SDS011;31127;52.078;4.370;2022-10-16T17:44:17;20.27;;;7.03;;
45388;SDS011;31127;52.078;4.370;2022-10-16T17:49:16;20.15;;;6.85;;
45388;SDS011;31127;52.078;4.370;2022-10-16T17:54:12;18.83;;;6.90;;
45388;SDS011;31127;52.078;4.370;2022-10-16T17:59:08;18.42;;;6.93;;
45388;SDS011;31127;52.078;4.370;2022-10-16T18:04:08;23.70;;;7.10;;
45388;SDS011;31127;52.078;4.370;2022-10-16T18:09:05;19.67;;;7.00;;
45388;SDS011;31127;52.078;4.370;2022-10-16T18:14:00;18.58;;;6.57;;
45388;SDS011;31127;52.078;4.370;2022-10-16T18:18:56;18.15;;;6.22;;
45388;SDS011;31127;52.078;4.370;2022-10-16T18:24:12;26.05;;;6.05;;
45388;SDS011;31127;52.078;4.370;2022-10-16T18:29:08;24.97;;;8.20;;
45388;SDS011;31127;52.078;4.370;2022-10-16T18:34:04;20.67;;;6.18;;
45388;SDS011;31127;52.078;4.370;2022-10-16T18:39:01;20.38;;;6.90;;
45388;SDS011;31127;52.078;4.370;2022-10-16T18:44:03;17.52;;;6.28;;
45388;SDS011;31127;52.078;4.370;2022-10-16T18:48:58;21.10;;;7.13;;
45388;SDS011;31127;52.078;4.370;2022-10-16T18:53:57;23.85;;;6.03;;
45388;SDS011;31127;52.078;4.370;2022-10-16T18:58:54;17.58;;;5.25;;
45388;SDS011;31127;52.078;4.370;2022-10-16T19:04:10;11.55;;;4.60;;
45388;SDS011;31127;52.078;4.370;2022-10-16T19:09:06;15.30;;;4.65;;
45388;SDS011;31127;52.078;4.370;2022-10-16T19:14:02;20.58;;;5.35;;
45388;SDS011;31127;52.078;4.370;2022-10-16T19:19:18;15.25;;;5.50;;
45388;SDS011;31127;52.078;4.370;2022-10-16T19:24:14;18.67;;;4.70;;
45388;SDS011;31127;52.078;4.370;2022-10-16T19:29:10;17.02;;;4.53;;
45388;SDS011;31127;52.078;4.370;2022-10-16T19:34:06;20.55;;;5.43;;
45388;SDS011;31127;52.078;4.370;2022-10-16T19:39:21;18.38;;;5.85;;
45388;SDS011;31127;52.078;4.370;2022-10-16T19:44:19;21.60;;;6.25;;
45388;SDS011;31127;52.078;4.370;2022-10-16T19:49:34;18.90;;;6.60;;
45388;SDS011;31127;52.078;4.370;2022-10-16T19:54:29;23.77;;;6.93;;
45388;SDS011;31127;52.078;4.370;2022-10-16T19:59:45;14.55;;;5.10;;
45388;SDS011;31127;52.078;4.370;2022-10-16T20:05:02;18.17;;;5.95;;
45388;SDS011;31127;52.078;4.370;2022-10-16T20:09:58;17.25;;;6.28;;
45388;SDS011;31127;52.078;4.370;2022-10-16T20:14:53;17.05;;;4.68;;
45388;SDS011;31127;52.078;4.370;2022-10-16T20:19:48;19.08;;;4.50;;
45388;SDS011;31127;52.078;4.370;2022-10-16T20:25:04;22.58;;;5.88;;
45388;SDS011;31127;52.078;4.370;2022-10-16T20:30:19;14.40;;;4.95;;
45388;SDS011;31127;52.078;4.370;2022-10-16T20:35:15;13.30;;;4.78;;
45388;SDS011;31127;52.078;4.370;2022-10-16T20:40:32;17.30;;;6.50;;
45388;SDS011;31127;52.078;4.370;2022-10-16T20:45:28;12.68;;;5.57;;
45388;SDS011;31127;52.078;4.370;2022-10-16T20:50:33;19.60;;;5.50;;
45388;SDS011;31127;52.078;4.370;2022-10-16T20:55:28;11.38;;;5.55;;
45388;SDS011;31127;52.078;4.370;2022-10-16T21:00:23;14.13;;;5.90;;
45388;SDS011;31127;52.078;4.370;2022-10-16T21:05:19;17.02;;;6.72;;
45388;SDS011;31127;52.078;4.370;2022-10-16T21:10:15;14.50;;;6.38;;
45388;SDS011;31127;52.078;4.370;2022-10-16T21:15:10;15.73;;;7.50;;
45388;SDS011;31127;52.078;4.370;2022-10-16T21:20:07;15.50;;;6.53;;
45388;SDS011;31127;52.078;4.370;2022-10-16T21:25:03;14.18;;;7.28;;
45388;SDS011;31127;52.078;4.370;2022-10-16T21:29:58;12.43;;;7.18;;
45388;SDS011;31127;52.078;4.370;2022-10-16T21:34:53;12.65;;;6.70;;
45388;SDS011;31127;52.078;4.370;2022-10-16T21:39:49;17.90;;;7.53;;
45388;SDS011;31127;52.078;4.370;2022-10-16T21:45:04;15.68;;;6.80;;
45388;SDS011;31127;52.078;4.370;2022-10-16T21:50:19;9.85;;;6.88;;
45388;SDS011;31127;52.078;4.370;2022-10-16T21:55:15;9.07;;;6.37;;
45388;SDS011;31127;52.078;4.370;2022-10-16T22:00:30;11.85;;;5.93;;
45388;SDS011;31127;52.078;4.370;2022-10-16T22:05:25;14.55;;;5.95;;
45388;SDS011;31127;52.078;4.370;2022-10-16T22:10:21;9.95;;;5.22;;
45388;SDS011;31127;52.078;4.370;2022-10-16T22:15:36;12.73;;;6.10;;
45388;SDS011;31127;52.078;4.370;2022-10-16T22:20:31;11.45;;;6.53;;
45388;SDS011;31127;52.078;4.370;2022-10-16T22:25:47;11.52;;;5.30;;
45388;SDS011;31127;52.078;4.370;2022-10-16T22:30:42;9.93;;;6.07;;
45388;SDS011;31127;52.078;4.370;2022-10-16T22:35:39;12.38;;;6.15;;
45388;SDS011;31127;52.078;4.370;2022-10-16T22:40:54;11.68;;;6.25;;
45388;SDS011;31127;52.078;4.370;2022-10-16T22:45:50;8.45;;;5.35;;
45388;SDS011;31127;52.078;4.370;2022-10-16T22:50:46;8.67;;;4.97;;
45388;SDS011;31127;52.078;4.370;2022-10-16T22:55:41;6.55;;;4.28;;
45388;SDS011;31127;52.078;4.370;2022-10-16T23:00:39;6.25;;;4.38;;
45388;SDS011;31127;52.078;4.370;2022-10-16T23:05:55;6.72;;;4.18;;
45388;SDS011;31127;52.078;4.370;2022-10-16T23:10:50;8.20;;;3.22;;
45388;SDS011;31127;52.078;4.370;2022-10-16T23:15:46;5.70;;;3.28;;
45388;SDS011;31127;52.078;4.370;2022-10-16T23:21:08;7.38;;;4.00;;
45388;SDS011;31127;52.078;4.370;2022-10-16T23:26:11;7.85;;;3.50;;
45388;SDS011;31127;52.078;4.370;2022-10-16T23:31:07;9.07;;;4.25;;
45388;SDS011;31127;52.078;4.370;2022-10-16T23:36:22;5.68;;;3.58;;
45388;SDS011;31127;52.078;4.370;2022-10-16T23:41:18;7.20;;;3.70;;
45388;SDS011;31127;52.078;4.370;2022-10-16T23:46:33;7.65;;;3.78;;
45388;SDS011;31127;52.078;4.370;2022-10-16T23:51:32;8.15;;;4.50;;
45388;SDS011;31127;52.078;4.370;2022-10-16T23:56:28;7.10;;;4.97;;
